createdAt,value
2022-09-13T00:01:50.874Z,4.87
2022-09-13T00:04:55.419Z,4.90
2022-09-13T00:07:59.192Z,5.80
2022-09-13T00:11:02.017Z,6.60
2022-09-13T00:14:05.165Z,6.93
2022-09-13T00:17:08.103Z,6.80
2022-09-13T00:20:12.448Z,5.93
2022-09-13T00:23:15.541Z,5.17
2022-09-13T00:26:20.970Z,4.97
2022-09-13T00:29:23.815Z,5.30
2022-09-13T00:32:26.826Z,5.03
2022-09-13T00:35:31.085Z,5.23
2022-09-13T00:38:35.806Z,5.23
2022-09-13T00:41:39.603Z,4.87
2022-09-13T00:44:57.535Z,5.57
2022-09-13T00:48:03.208Z,5.00
2022-09-13T00:51:09.738Z,5.30
2022-09-13T00:54:13.948Z,5.40
2022-09-13T00:57:19.123Z,5.10
2022-09-13T01:00:22.642Z,5.03
2022-09-13T01:03:29.028Z,5.03
2022-09-13T01:06:37.358Z,4.87
2022-09-13T01:09:44.229Z,4.27
2022-09-13T01:12:53.350Z,3.67
2022-09-13T01:15:56.250Z,4.60
2022-09-13T01:18:59.096Z,4.83
2022-09-13T01:22:53.750Z,5.60
2022-09-13T01:26:21.492Z,5.53
2022-09-13T01:29:56.801Z,5.43
2022-09-13T01:33:24.121Z,5.20
2022-09-13T01:36:50.494Z,5.03
2022-09-13T01:40:04.997Z,4.53
2022-09-13T01:43:28.623Z,5.90
2022-09-13T01:46:38.837Z,4.90
2022-09-13T01:49:48.704Z,5.07
2022-09-13T01:52:57.022Z,4.90
2022-09-13T01:56:05.068Z,6.37
2022-09-13T01:59:16.446Z,5.53
2022-09-13T02:02:24.224Z,5.43
2022-09-13T02:05:34.842Z,4.33
2022-09-13T02:08:43.198Z,4.60
2022-09-13T02:11:49.768Z,5.17
2022-09-13T02:14:59.790Z,4.30
2022-09-13T02:18:09.462Z,4.93
2022-09-13T02:21:19.010Z,4.70
2022-09-13T02:24:27.421Z,4.83
2022-09-13T02:27:35.069Z,5.20
2022-09-13T02:30:41.598Z,5.00
2022-09-13T02:33:49.347Z,5.00
2022-09-13T02:36:56.560Z,6.20
2022-09-13T02:40:03.694Z,6.90
2022-09-13T02:43:10.065Z,5.10
2022-09-13T02:46:22.635Z,5.57
2022-09-13T02:49:31.720Z,5.40
2022-09-13T02:52:45.848Z,5.50
2022-09-13T02:55:56.191Z,5.23
2022-09-13T02:59:06.441Z,6.00
2022-09-13T03:02:14.006Z,5.67
2022-09-13T03:05:17.606Z,5.60
2022-09-13T03:08:23.334Z,6.10
2022-09-13T03:11:34.027Z,4.93
2022-09-13T03:14:44.325Z,5.50
2022-09-13T03:17:55.909Z,5.73
2022-09-13T03:21:07.978Z,6.03
2022-09-13T03:24:23.642Z,6.33
2022-09-13T03:27:35.771Z,5.80
2022-09-13T03:30:43.321Z,6.33
2022-09-13T03:33:52.365Z,5.50
2022-09-13T03:36:58.973Z,5.13
2022-09-13T03:40:08.315Z,5.53
2022-09-13T03:43:15.657Z,5.23
2022-09-13T03:46:23.909Z,6.57
2022-09-13T03:49:28.753Z,5.43
2022-09-13T03:52:31.729Z,4.60
2022-09-13T03:55:39.454Z,5.43
2022-09-13T03:58:42.297Z,6.00
2022-09-13T04:01:45.852Z,5.70
2022-09-13T04:04:49.518Z,6.07
2022-09-13T04:07:52.347Z,5.40
2022-09-13T04:10:56.674Z,6.70
2022-09-13T04:13:59.603Z,5.33
2022-09-13T04:17:02.675Z,5.73
2022-09-13T04:20:06.641Z,5.63
2022-09-13T04:23:09.488Z,5.77
2022-09-13T04:26:13.690Z,5.60
2022-09-13T04:29:16.639Z,6.90
2022-09-13T04:32:19.477Z,5.60
2022-09-13T04:35:22.304Z,5.67
2022-09-13T04:38:25.117Z,7.27
2022-09-13T04:41:29.679Z,7.30
2022-09-13T04:44:33.476Z,6.93
2022-09-13T04:47:36.349Z,7.37
2022-09-13T04:50:39.191Z,7.10
2022-09-13T04:53:42.041Z,7.67
2022-09-13T04:56:47.096Z,6.63
2022-09-13T04:59:49.950Z,7.87
2022-09-13T05:02:56.157Z,7.73
2022-09-13T05:06:03.739Z,7.90
2022-09-13T05:09:07.073Z,7.10
2022-09-13T05:12:11.741Z,8.07
2022-09-13T05:15:14.682Z,7.20
2022-09-13T05:18:17.509Z,8.00
2022-09-13T05:21:21.272Z,7.70
2022-09-13T05:24:24.157Z,8.43
2022-09-13T05:27:28.382Z,8.10
2022-09-13T05:30:31.293Z,8.73
2022-09-13T05:33:35.701Z,8.33
2022-09-13T05:36:39.037Z,8.53
2022-09-13T05:40:00.700Z,8.20
2022-09-13T05:43:06.134Z,8.50
2022-09-13T05:46:12.271Z,9.13
2022-09-13T05:49:15.329Z,8.67
2022-09-13T05:52:18.178Z,9.67
2022-09-13T05:55:22.027Z,9.50
2022-09-13T05:58:26.338Z,9.93
2022-09-13T06:01:30.252Z,8.93
2022-09-13T06:04:33.089Z,8.73
2022-09-13T06:07:35.935Z,9.67
2022-09-13T06:10:38.839Z,10.17
2022-09-13T06:13:43.484Z,9.73
2022-09-13T06:16:46.326Z,9.23
2022-09-13T06:19:49.229Z,9.40
2022-09-13T06:22:52.048Z,8.60
2022-09-13T06:26:01.846Z,10.13
2022-09-13T06:29:06.074Z,10.53
2022-09-13T06:32:08.901Z,11.57
2022-09-13T06:35:11.850Z,11.27
2022-09-13T06:38:14.649Z,11.03
2022-09-13T06:41:19.415Z,9.97
2022-09-13T06:44:23.786Z,11.00
2022-09-13T06:47:27.011Z,12.47
2022-09-13T06:50:29.835Z,12.07
2022-09-13T06:53:34.766Z,12.30
2022-09-13T06:56:39.318Z,12.23
2022-09-13T06:59:43.677Z,10.90
2022-09-13T07:02:52.113Z,11.70
2022-09-13T07:05:55.189Z,12.33
2022-09-13T07:09:00.011Z,16.00
2022-09-13T07:12:03.338Z,12.07
2022-09-13T07:15:08.552Z,11.90
2022-09-13T07:18:11.351Z,10.60
2022-09-13T07:21:14.120Z,12.07
2022-09-13T07:24:17.396Z,12.00
2022-09-13T07:27:20.400Z,12.13
2022-09-13T07:30:26.676Z,12.23
2022-09-13T07:33:29.580Z,12.60
2022-09-13T07:36:34.525Z,11.20
2022-09-13T07:39:37.362Z,12.73
2022-09-13T07:42:40.347Z,11.50
2022-09-13T07:45:44.529Z,11.57
2022-09-13T07:48:48.490Z,12.53
2022-09-13T07:51:53.041Z,13.10
2022-09-13T07:54:56.706Z,12.57
2022-09-13T07:57:59.653Z,12.03
2022-09-13T08:01:07.802Z,11.70
2022-09-13T08:04:13.128Z,12.27
2022-09-13T08:07:15.991Z,10.53
2022-09-13T08:10:18.855Z,11.53
2022-09-13T08:13:21.728Z,9.57
2022-09-13T08:16:26.892Z,11.57
2022-09-13T08:19:29.875Z,11.00
2022-09-13T08:22:32.692Z,12.33
2022-09-13T08:25:35.835Z,11.30
2022-09-13T08:28:40.158Z,10.77
2022-09-13T08:31:45.224Z,10.73
2022-09-13T08:34:48.066Z,11.03
2022-09-13T08:37:50.901Z,10.63
2022-09-13T08:40:57.775Z,11.20
2022-09-13T08:44:09.828Z,11.63
2022-09-13T08:47:36.428Z,11.30
2022-09-13T08:50:40.256Z,14.47
2022-09-13T08:53:48.733Z,11.13
2022-09-13T08:56:59.288Z,11.47
2022-09-13T09:00:18.893Z,10.07
2022-09-13T09:03:30.184Z,10.97
2022-09-13T09:06:35.175Z,11.30
2022-09-13T09:09:43.217Z,11.47
2022-09-13T09:12:50.313Z,10.67
2022-09-13T09:15:56.393Z,10.60
2022-09-13T09:19:06.558Z,9.90
2022-09-13T09:22:17.697Z,10.47
2022-09-13T09:25:22.859Z,11.73
2022-09-13T09:28:27.014Z,10.67
2022-09-13T09:31:40.441Z,10.97
2022-09-13T09:34:55.014Z,10.93
2022-09-13T09:38:17.301Z,9.17
2022-09-13T09:41:27.862Z,9.80
2022-09-13T09:44:33.885Z,10.63
2022-09-13T09:47:45.387Z,10.40
2022-09-13T09:50:53.163Z,11.33
2022-09-13T09:54:02.059Z,9.63
2022-09-13T09:57:06.953Z,9.07
2022-09-13T10:00:13.257Z,9.17
2022-09-13T10:03:20.805Z,8.53
2022-09-13T10:06:28.357Z,9.27
2022-09-13T10:09:31.221Z,8.77
2022-09-13T10:12:37.611Z,9.23
2022-09-13T10:15:55.272Z,9.00
2022-09-13T10:19:23.746Z,8.07
2022-09-13T10:22:29.381Z,9.20
2022-09-13T10:25:32.848Z,8.63
2022-09-13T10:28:42.825Z,7.93
2022-09-13T10:31:50.052Z,8.93
2022-09-13T10:34:53.732Z,8.40
2022-09-13T10:37:58.057Z,9.07
2022-09-13T10:41:03.676Z,9.63
2022-09-13T10:44:22.322Z,8.80
2022-09-13T10:47:34.467Z,9.07
2022-09-13T10:50:37.495Z,9.03
2022-09-13T10:53:43.646Z,10.33
2022-09-13T10:56:46.753Z,9.90
2022-09-13T10:59:54.801Z,9.90
2022-09-13T11:03:14.608Z,10.27
2022-09-13T11:06:26.969Z,9.50
2022-09-13T11:09:36.590Z,11.37
2022-09-13T11:12:44.510Z,9.87
2022-09-13T11:15:57.618Z,11.67
2022-09-13T11:19:26.083Z,11.67
2022-09-13T11:22:51.514Z,11.57
2022-09-13T11:26:09.612Z,11.80
2022-09-13T11:29:29.013Z,11.70
2022-09-13T11:32:51.007Z,12.50
2022-09-13T11:36:17.053Z,11.50
2022-09-13T11:39:31.603Z,11.03
2022-09-13T11:42:47.770Z,11.23
2022-09-13T11:45:59.090Z,11.83
2022-09-13T11:49:26.332Z,12.73
2022-09-13T11:52:41.826Z,12.17
2022-09-13T11:55:50.129Z,11.63
2022-09-13T11:58:57.597Z,10.17
2022-09-13T12:02:06.211Z,10.50
2022-09-13T12:05:22.458Z,11.60
2022-09-13T12:08:29.370Z,11.10
2022-09-13T12:11:36.267Z,11.20
2022-09-13T12:14:49.472Z,11.27
2022-09-13T12:17:59.374Z,11.90
2022-09-13T12:21:08.979Z,11.90
2022-09-13T12:24:17.556Z,11.40
2022-09-13T12:27:27.991Z,11.10
2022-09-13T12:30:43.484Z,11.33
2022-09-13T12:33:47.899Z,12.87
2022-09-13T12:37:11.623Z,12.80
2022-09-13T12:40:36.112Z,12.10
2022-09-13T12:44:11.486Z,12.87
2022-09-13T12:47:48.522Z,10.90
2022-09-13T12:51:04.701Z,14.57
2022-09-13T12:54:40.012Z,14.30
2022-09-13T12:57:51.636Z,15.30
2022-09-13T13:01:09.749Z,13.50
2022-09-13T13:04:17.345Z,13.93
2022-09-13T13:07:22.601Z,14.10
2022-09-13T13:10:30.515Z,18.57
2022-09-13T13:13:37.553Z,12.97
2022-09-13T13:16:41.506Z,14.13
2022-09-13T13:19:45.843Z,11.50
2022-09-13T13:22:52.784Z,13.83
2022-09-13T13:26:02.939Z,13.40
2022-09-13T13:29:18.817Z,13.50
2022-09-13T13:32:22.223Z,16.93
2022-09-13T13:35:33.006Z,10.97
2022-09-13T13:38:42.696Z,10.17
2022-09-13T13:41:52.811Z,11.90
2022-09-13T13:45:15.140Z,10.57
2022-09-13T13:48:36.780Z,10.73
2022-09-13T13:51:40.985Z,10.80
2022-09-13T13:54:59.941Z,10.80
2022-09-13T13:58:05.690Z,9.70
2022-09-13T14:01:18.001Z,9.80
2022-09-13T14:05:06.377Z,9.23
2022-09-13T14:08:30.771Z,10.30
2022-09-13T14:11:49.327Z,10.20
2022-09-13T14:15:05.508Z,13.63
2022-09-13T14:18:35.370Z,8.90
2022-09-13T14:21:38.426Z,8.30
2022-09-13T14:24:46.442Z,9.67
2022-09-13T14:27:50.137Z,7.37
2022-09-13T14:30:58.439Z,6.60
2022-09-13T14:34:01.325Z,6.70
2022-09-13T14:37:06.664Z,6.93
2022-09-13T14:40:19.991Z,6.40
2022-09-13T14:43:25.489Z,7.30
2022-09-13T14:46:33.398Z,6.03
2022-09-13T14:49:40.970Z,6.97
2022-09-13T14:52:49.801Z,6.53
2022-09-13T14:55:57.518Z,6.27
2022-09-13T14:59:04.399Z,6.33
2022-09-13T15:02:08.624Z,6.23
2022-09-13T15:05:15.814Z,9.23
2022-09-13T15:08:27.784Z,7.70
2022-09-13T15:11:35.238Z,7.50
2022-09-13T15:14:38.948Z,7.00
2022-09-13T15:17:55.974Z,7.10
2022-09-13T15:21:01.883Z,7.67
2022-09-13T15:24:05.113Z,8.17
2022-09-13T15:27:19.236Z,8.40
2022-09-13T15:30:25.759Z,8.17
2022-09-13T15:33:30.847Z,7.50
2022-09-13T15:36:35.332Z,7.53
2022-09-13T15:39:48.194Z,6.97
2022-09-13T15:42:54.417Z,8.40
2022-09-13T15:45:58.870Z,9.47
2022-09-13T15:49:05.652Z,9.23
2022-09-13T15:52:09.669Z,9.07
2022-09-13T15:55:12.989Z,9.40
2022-09-13T15:58:17.193Z,8.70
2022-09-13T16:01:20.378Z,8.07
2022-09-13T16:04:23.325Z,7.77
2022-09-13T16:07:27.499Z,7.50
2022-09-13T16:10:30.677Z,8.13
2022-09-13T16:13:34.909Z,7.57
2022-09-13T16:16:37.833Z,7.90
2022-09-13T16:19:41.308Z,7.43
2022-09-13T16:22:44.311Z,6.83
2022-09-13T16:25:47.754Z,7.03
2022-09-13T16:28:51.983Z,6.23
2022-09-13T16:31:55.023Z,7.33
2022-09-13T16:34:57.900Z,6.43
2022-09-13T16:38:00.940Z,6.47
2022-09-13T16:41:05.819Z,7.00
2022-09-13T16:44:10.016Z,8.27
2022-09-13T16:47:12.997Z,7.00
2022-09-13T16:50:16.177Z,6.83
2022-09-13T16:53:19.070Z,6.87
2022-09-13T16:56:23.899Z,6.73
2022-09-13T16:59:28.119Z,8.23
2022-09-13T17:02:31.125Z,6.57
2022-09-13T17:05:34.186Z,6.90
2022-09-13T17:08:39.344Z,6.97
2022-09-13T17:11:43.961Z,7.03
2022-09-13T17:14:50.484Z,6.30
2022-09-13T17:17:53.368Z,6.33
2022-09-13T17:20:56.270Z,6.47
2022-09-13T17:23:59.111Z,6.77
2022-09-13T17:27:02.056Z,7.27
2022-09-13T17:30:07.289Z,6.47
2022-09-13T17:33:10.619Z,6.10
2022-09-13T17:36:15.272Z,5.87
2022-09-13T17:39:18.008Z,5.90
2022-09-13T17:42:23.350Z,5.90
2022-09-13T17:45:28.070Z,5.60
2022-09-13T17:48:30.905Z,6.37
2022-09-13T17:51:34.637Z,5.70
2022-09-13T17:54:37.517Z,5.57
2022-09-13T17:57:40.644Z,5.50
2022-09-13T18:00:44.939Z,5.30
2022-09-13T18:03:48.011Z,5.27
2022-09-13T18:06:52.003Z,4.87
2022-09-13T18:09:54.847Z,4.70
2022-09-13T18:12:57.661Z,4.87
2022-09-13T18:16:03.745Z,5.03
2022-09-13T18:19:07.302Z,5.23
2022-09-13T18:22:10.425Z,5.43
2022-09-13T18:25:13.241Z,5.73
2022-09-13T18:28:16.111Z,4.87
2022-09-13T18:31:20.424Z,5.13
2022-09-13T18:34:27.080Z,4.70
2022-09-13T18:37:33.268Z,4.73
2022-09-13T18:40:36.078Z,4.70
2022-09-13T18:43:40.211Z,5.00
2022-09-13T18:46:44.910Z,5.57
2022-09-13T18:49:47.842Z,5.33
2022-09-13T18:52:50.713Z,4.53
2022-09-13T18:55:56.008Z,4.97
2022-09-13T18:59:00.995Z,4.73
2022-09-13T19:02:05.455Z,5.07
2022-09-13T19:05:09.815Z,5.47
2022-09-13T19:08:12.793Z,5.33
2022-09-13T19:11:42.165Z,5.00
2022-09-13T19:14:39.000Z,4.63
2022-09-13T19:17:43.272Z,5.67
2022-09-13T19:20:46.147Z,6.27
2022-09-13T19:23:59.365Z,5.83
2022-09-13T19:27:02.680Z,6.47
2022-09-13T19:30:06.298Z,6.73
2022-09-13T19:33:10.826Z,5.50
2022-09-13T19:36:16.327Z,5.77
2022-09-13T19:39:19.136Z,6.47
2022-09-13T19:42:22.160Z,5.23
2022-09-13T19:45:25.395Z,5.13
2022-09-13T19:48:39.076Z,5.13
2022-09-13T19:51:47.578Z,5.00
2022-09-13T19:54:56.278Z,5.87
2022-09-13T19:57:59.538Z,5.17
2022-09-13T20:01:05.820Z,5.37
2022-09-13T20:04:14.373Z,6.00
2022-09-13T20:07:17.266Z,6.43
2022-09-13T20:10:20.065Z,6.23
2022-09-13T20:13:23.534Z,4.60
2022-09-13T20:16:28.979Z,4.43
2022-09-13T20:19:44.822Z,4.53
2022-09-13T20:22:49.169Z,4.10
2022-09-13T20:25:52.086Z,4.30
2022-09-13T20:28:56.444Z,5.83
2022-09-13T20:31:59.859Z,4.80
2022-09-13T20:35:04.366Z,4.70
2022-09-13T20:38:07.188Z,4.20
2022-09-13T20:41:14.257Z,3.70
2022-09-13T20:44:17.105Z,3.50
2022-09-13T20:47:19.921Z,3.80
2022-09-13T20:50:24.162Z,3.80
2022-09-13T20:53:27.178Z,4.53
2022-09-13T20:56:33.890Z,3.63
2022-09-13T20:59:36.718Z,3.83
2022-09-13T21:02:39.630Z,4.77
2022-09-13T21:05:44.125Z,7.20
2022-09-13T21:08:49.492Z,3.73
2022-09-13T21:11:52.429Z,3.47
2022-09-13T21:14:55.860Z,5.17
2022-09-13T21:17:59.090Z,3.97
2022-09-13T21:21:04.823Z,3.87
2022-09-13T21:24:12.254Z,5.20
2022-09-13T21:27:15.563Z,3.77
2022-09-13T21:30:18.577Z,4.57
2022-09-13T21:33:21.376Z,4.17
2022-09-13T21:36:26.228Z,4.53
2022-09-13T21:39:29.960Z,6.83
2022-09-13T21:42:33.035Z,3.97
2022-09-13T21:45:35.866Z,3.70
2022-09-13T21:48:38.771Z,4.90
2022-09-13T21:51:44.549Z,3.50
2022-09-13T21:54:47.351Z,5.33
2022-09-13T21:57:50.168Z,5.97
2022-09-13T22:00:53.045Z,3.30
2022-09-13T22:03:55.999Z,5.33
2022-09-13T22:07:00.183Z,2.90
2022-09-13T22:10:03.022Z,4.47
2022-09-13T22:13:05.885Z,3.20
2022-09-13T22:16:10.684Z,10.47
2022-09-13T22:19:15.418Z,3.63
2022-09-13T22:22:19.698Z,2.67
2022-09-13T22:25:23.138Z,2.70
2022-09-13T22:28:26.004Z,6.30
2022-09-13T22:31:31.001Z,4.60
2022-09-13T22:34:34.999Z,2.80
2022-09-13T22:37:39.180Z,2.73
2022-09-13T22:40:41.989Z,8.53
2022-09-13T22:43:45.412Z,10.03
2022-09-13T22:46:48.939Z,4.03
2022-09-13T22:49:51.780Z,3.00
2022-09-13T22:52:55.953Z,3.10
2022-09-13T22:56:03.968Z,2.80
2022-09-13T22:59:09.705Z,4.37
2022-09-13T23:02:12.559Z,4.87
2022-09-13T23:05:16.908Z,2.70
2022-09-13T23:08:21.229Z,3.83
2022-09-13T23:11:26.119Z,2.73
2022-09-13T23:14:28.952Z,3.63
2022-09-13T23:17:31.743Z,2.90
2022-09-13T23:20:34.566Z,3.00
2022-09-13T23:23:39.450Z,4.07
2022-09-13T23:26:43.055Z,3.70
2022-09-13T23:29:46.894Z,2.93
2022-09-13T23:32:50.332Z,3.10
2022-09-13T23:35:58.550Z,4.90
2022-09-13T23:39:03.976Z,3.27
2022-09-13T23:42:07.052Z,6.90
2022-09-13T23:45:10.799Z,4.20
2022-09-13T23:48:13.638Z,4.27
2022-09-13T23:51:23.921Z,2.97
2022-09-13T23:54:28.115Z,4.03
2022-09-13T23:57:31.058Z,6.73
